sensor_id;sensor_type;location;lat;lon;timestamp;P1;durP1;ratioP1;P2;durP2;ratioP2
2622;SDS011;1321;48.690;9.022;2023-02-21T00:00:32;4.90;;;4.60;;
2622;SDS011;1321;48.690;9.022;2023-02-21T00:03:19;6.10;;;5.50;;
2622;SDS011;1321;48.690;9.022;2023-02-21T00:06:06;5.33;;;4.87;;
2622;SDS011;1321;48.690;9.022;2023-02-21T00:08:53;5.50;;;5.20;;
2622;SDS011;1321;48.690;9.022;2023-02-21T00:11:40;5.70;;;5.27;;
2622;SDS011;1321;48.690;9.022;2023-02-21T00:14:26;4.83;;;4.60;;
2622;SDS011;1321;48.690;9.022;2023-02-21T00:17:12;4.90;;;4.60;;
2622;SDS011;1321;48.690;9.022;2023-02-21T00:19:57;4.87;;;4.57;;
2622;SDS011;1321;48.690;9.022;2023-02-21T00:22:44;5.20;;;4.80;;
2622;SDS011;1321;48.690;9.022;2023-02-21T00:25:31;5.00;;;4.70;;
2622;SDS011;1321;48.690;9.022;2023-02-21T00:28:17;6.20;;;5.60;;
2622;SDS011;1321;48.690;9.022;2023-02-21T00:31:02;4.80;;;4.50;;
2622;SDS011;1321;48.690;9.022;2023-02-21T00:33:48;4.80;;;4.60;;
2622;SDS011;1321;48.690;9.022;2023-02-21T00:36:34;4.90;;;4.60;;
2622;SDS011;1321;48.690;9.022;2023-02-21T00:39:19;5.43;;;5.13;;
2622;SDS011;1321;48.690;9.022;2023-02-21T00:42:06;5.30;;;4.83;;
2622;SDS011;1321;48.690;9.022;2023-02-21T00:44:52;4.90;;;4.50;;
2622;SDS011;1321;48.690;9.022;2023-02-21T00:47:38;5.03;;;4.63;;
2622;SDS011;1321;48.690;9.022;2023-02-21T00:50:24;4.80;;;4.43;;
2622;SDS011;1321;48.690;9.022;2023-02-21T00:53:09;5.00;;;4.70;;
2622;SDS011;1321;48.690;9.022;2023-02-21T00:55:55;4.53;;;4.30;;
2622;SDS011;1321;48.690;9.022;2023-02-21T00:58:42;4.30;;;4.00;;
2622;SDS011;1321;48.690;9.022;2023-02-21T01:01:27;4.77;;;4.47;;
2622;SDS011;1321;48.690;9.022;2023-02-21T01:04:13;4.23;;;4.03;;
2622;SDS011;1321;48.690;9.022;2023-02-21T01:06:58;5.10;;;4.80;;
2622;SDS011;1321;48.690;9.022;2023-02-21T01:09:44;5.23;;;4.73;;
2622;SDS011;1321;48.690;9.022;2023-02-21T01:12:30;4.80;;;4.50;;
2622;SDS011;1321;48.690;9.022;2023-02-21T01:15:17;4.40;;;4.20;;
2622;SDS011;1321;48.690;9.022;2023-02-21T01:18:02;4.60;;;4.20;;
2622;SDS011;1321;48.690;9.022;2023-02-21T01:20:48;5.57;;;5.07;;
2622;SDS011;1321;48.690;9.022;2023-02-21T01:23:34;5.57;;;5.27;;
2622;SDS011;1321;48.690;9.022;2023-02-21T01:26:19;5.93;;;4.80;;
2622;SDS011;1321;48.690;9.022;2023-02-21T01:29:05;5.77;;;4.80;;
2622;SDS011;1321;48.690;9.022;2023-02-21T01:31:52;5.60;;;5.20;;
2622;SDS011;1321;48.690;9.022;2023-02-21T01:34:37;4.50;;;4.33;;
2622;SDS011;1321;48.690;9.022;2023-02-21T01:37:23;5.13;;;4.73;;
2622;SDS011;1321;48.690;9.022;2023-02-21T01:40:12;4.43;;;4.20;;
2622;SDS011;1321;48.690;9.022;2023-02-21T01:42:58;5.00;;;4.70;;
2622;SDS011;1321;48.690;9.022;2023-02-21T01:45:46;4.80;;;4.50;;
2622;SDS011;1321;48.690;9.022;2023-02-21T01:48:35;4.43;;;4.23;;
2622;SDS011;1321;48.690;9.022;2023-02-21T01:51:22;5.20;;;4.90;;
2622;SDS011;1321;48.690;9.022;2023-02-21T01:54:10;5.00;;;4.80;;
2622;SDS011;1321;48.690;9.022;2023-02-21T01:56:57;5.20;;;4.90;;
2622;SDS011;1321;48.690;9.022;2023-02-21T01:59:44;5.47;;;5.07;;
2622;SDS011;1321;48.690;9.022;2023-02-21T02:02:33;5.33;;;5.03;;
2622;SDS011;1321;48.690;9.022;2023-02-21T02:05:28;5.10;;;4.90;;
2622;SDS011;1321;48.690;9.022;2023-02-21T02:08:14;5.50;;;5.10;;
2622;SDS011;1321;48.690;9.022;2023-02-21T02:11:06;5.00;;;4.70;;
2622;SDS011;1321;48.690;9.022;2023-02-21T02:14:05;5.50;;;5.20;;
2622;SDS011;1321;48.690;9.022;2023-02-21T02:16:48;5.63;;;5.20;;
2622;SDS011;1321;48.690;9.022;2023-02-21T02:19:48;4.50;;;4.27;;
2622;SDS011;1321;48.690;9.022;2023-02-21T02:23:01;4.60;;;4.40;;
2622;SDS011;1321;48.690;9.022;2023-02-21T02:26:02;5.27;;;4.77;;
2622;SDS011;1321;48.690;9.022;2023-02-21T02:28:51;4.83;;;4.53;;
2622;SDS011;1321;48.690;9.022;2023-02-21T02:31:37;5.73;;;5.43;;
2622;SDS011;1321;48.690;9.022;2023-02-21T02:37:11;5.10;;;4.80;;
2622;SDS011;1321;48.690;9.022;2023-02-21T02:39:45;5.00;;;4.77;;
2622;SDS011;1321;48.690;9.022;2023-02-21T02:42:25;5.23;;;4.83;;
2622;SDS011;1321;48.690;9.022;2023-02-21T02:45:04;5.10;;;4.90;;
2622;SDS011;1321;48.690;9.022;2023-02-21T02:47:39;5.50;;;5.20;;
2622;SDS011;1321;48.690;9.022;2023-02-21T02:50:12;4.60;;;4.40;;
2622;SDS011;1321;48.690;9.022;2023-02-21T02:52:49;5.17;;;4.97;;
2622;SDS011;1321;48.690;9.022;2023-02-21T02:55:29;4.73;;;4.53;;
2622;SDS011;1321;48.690;9.022;2023-02-21T02:58:02;4.60;;;4.40;;
2622;SDS011;1321;48.690;9.022;2023-02-21T03:00:32;5.20;;;5.00;;
2622;SDS011;1321;48.690;9.022;2023-02-21T03:03:10;5.40;;;5.07;;
2622;SDS011;1321;48.690;9.022;2023-02-21T03:05:56;4.60;;;4.40;;
2622;SDS011;1321;48.690;9.022;2023-02-21T03:08:41;5.80;;;5.40;;
2622;SDS011;1321;48.690;9.022;2023-02-21T03:11:18;5.00;;;4.80;;
2622;SDS011;1321;48.690;9.022;2023-02-21T03:13:50;5.50;;;5.27;;
2622;SDS011;1321;48.690;9.022;2023-02-21T03:16:24;6.10;;;5.67;;
2622;SDS011;1321;48.690;9.022;2023-02-21T03:18:56;5.20;;;5.00;;
2622;SDS011;1321;48.690;9.022;2023-02-21T03:21:30;5.50;;;5.20;;
2622;SDS011;1321;48.690;9.022;2023-02-21T03:24:03;5.57;;;5.23;;
2622;SDS011;1321;48.690;9.022;2023-02-21T03:26:32;5.33;;;5.03;;
2622;SDS011;1321;48.690;9.022;2023-02-21T03:29:03;5.40;;;5.20;;
2622;SDS011;1321;48.690;9.022;2023-02-21T03:31:32;5.27;;;5.03;;
2622;SDS011;1321;48.690;9.022;2023-02-21T03:34:04;6.60;;;6.10;;
2622;SDS011;1321;48.690;9.022;2023-02-21T03:36:33;5.47;;;5.27;;
2622;SDS011;1321;48.690;9.022;2023-02-21T03:39:03;6.43;;;5.80;;
2622;SDS011;1321;48.690;9.022;2023-02-21T03:41:31;5.60;;;5.40;;
2622;SDS011;1321;48.690;9.022;2023-02-21T03:44:00;5.50;;;5.30;;
2622;SDS011;1321;48.690;9.022;2023-02-21T03:46:28;5.60;;;5.30;;
2622;SDS011;1321;48.690;9.022;2023-02-21T03:48:56;5.53;;;5.33;;
2622;SDS011;1321;48.690;9.022;2023-02-21T03:51:24;5.30;;;5.00;;
2622;SDS011;1321;48.690;9.022;2023-02-21T03:53:53;5.93;;;5.63;;
2622;SDS011;1321;48.690;9.022;2023-02-21T03:56:21;5.63;;;5.33;;
2622;SDS011;1321;48.690;9.022;2023-02-21T03:58:58;5.53;;;5.33;;
2622;SDS011;1321;48.690;9.022;2023-02-21T04:01:26;5.80;;;5.27;;
2622;SDS011;1321;48.690;9.022;2023-02-21T04:03:55;6.33;;;5.83;;
2622;SDS011;1321;48.690;9.022;2023-02-21T04:06:23;12.37;;;10.50;;
2622;SDS011;1321;48.690;9.022;2023-02-21T04:08:51;5.97;;;5.67;;
2622;SDS011;1321;48.690;9.022;2023-02-21T04:11:21;5.63;;;5.43;;
2622;SDS011;1321;48.690;9.022;2023-02-21T04:13:49;6.57;;;6.03;;
2622;SDS011;1321;48.690;9.022;2023-02-21T04:16:17;6.30;;;6.00;;
2622;SDS011;1321;48.690;9.022;2023-02-21T04:18:45;6.90;;;6.40;;
2622;SDS011;1321;48.690;9.022;2023-02-21T04:21:15;6.47;;;6.17;;
2622;SDS011;1321;48.690;9.022;2023-02-21T04:23:44;6.17;;;5.83;;
2622;SDS011;1321;48.690;9.022;2023-02-21T04:26:12;6.87;;;6.20;;
2622;SDS011;1321;48.690;9.022;2023-02-21T04:28:41;6.97;;;6.53;;
2622;SDS011;1321;48.690;9.022;2023-02-21T04:31:09;6.33;;;5.83;;
2622;SDS011;1321;48.690;9.022;2023-02-21T04:33:38;5.80;;;5.50;;
2622;SDS011;1321;48.690;9.022;2023-02-21T04:36:06;6.10;;;5.70;;
2622;SDS011;1321;48.690;9.022;2023-02-21T04:38:35;6.53;;;6.07;;
2622;SDS011;1321;48.690;9.022;2023-02-21T04:41:04;6.83;;;6.47;;
2622;SDS011;1321;48.690;9.022;2023-02-21T04:43:33;7.60;;;6.73;;
2622;SDS011;1321;48.690;9.022;2023-02-21T04:46:02;6.97;;;6.50;;
2622;SDS011;1321;48.690;9.022;2023-02-21T04:48:31;5.57;;;5.37;;
2622;SDS011;1321;48.690;9.022;2023-02-21T04:50:59;6.70;;;6.30;;
2622;SDS011;1321;48.690;9.022;2023-02-21T04:53:40;7.83;;;7.00;;
2622;SDS011;1321;48.690;9.022;2023-02-21T04:56:09;7.27;;;6.77;;
2622;SDS011;1321;48.690;9.022;2023-02-21T04:58:38;7.00;;;6.50;;
2622;SDS011;1321;48.690;9.022;2023-02-21T05:01:12;7.10;;;6.60;;
2622;SDS011;1321;48.690;9.022;2023-02-21T05:03:42;7.00;;;6.60;;
2622;SDS011;1321;48.690;9.022;2023-02-21T05:06:15;6.53;;;6.03;;
2622;SDS011;1321;48.690;9.022;2023-02-21T05:08:44;6.30;;;6.00;;
2622;SDS011;1321;48.690;9.022;2023-02-21T05:11:12;7.60;;;7.00;;
2622;SDS011;1321;48.690;9.022;2023-02-21T05:13:41;7.27;;;6.60;;
2622;SDS011;1321;48.690;9.022;2023-02-21T05:16:10;6.63;;;6.33;;
2622;SDS011;1321;48.690;9.022;2023-02-21T05:18:41;6.40;;;6.10;;
2622;SDS011;1321;48.690;9.022;2023-02-21T05:21:10;6.77;;;6.23;;
2622;SDS011;1321;48.690;9.022;2023-02-21T05:23:39;6.67;;;6.37;;
2622;SDS011;1321;48.690;9.022;2023-02-21T05:26:19;6.20;;;5.80;;
2622;SDS011;1321;48.690;9.022;2023-02-21T05:28:49;6.33;;;5.80;;
2622;SDS011;1321;48.690;9.022;2023-02-21T05:31:18;6.83;;;6.37;;
2622;SDS011;1321;48.690;9.022;2023-02-21T05:33:48;6.80;;;6.40;;
2622;SDS011;1321;48.690;9.022;2023-02-21T05:36:16;6.40;;;6.00;;
2622;SDS011;1321;48.690;9.022;2023-02-21T05:38:45;6.83;;;6.33;;
2622;SDS011;1321;48.690;9.022;2023-02-21T05:41:14;6.27;;;5.90;;
2622;SDS011;1321;48.690;9.022;2023-02-21T05:43:43;6.50;;;6.13;;
2622;SDS011;1321;48.690;9.022;2023-02-21T05:46:18;6.80;;;6.50;;
2622;SDS011;1321;48.690;9.022;2023-02-21T05:48:50;6.10;;;5.80;;
2622;SDS011;1321;48.690;9.022;2023-02-21T05:51:19;6.80;;;6.33;;
2622;SDS011;1321;48.690;9.022;2023-02-21T05:53:47;6.47;;;6.17;;
2622;SDS011;1321;48.690;9.022;2023-02-21T05:56:16;7.20;;;5.97;;
2622;SDS011;1321;48.690;9.022;2023-02-21T05:58:46;5.80;;;5.50;;
2622;SDS011;1321;48.690;9.022;2023-02-21T06:01:14;6.00;;;5.50;;
2622;SDS011;1321;48.690;9.022;2023-02-21T06:03:43;6.00;;;5.70;;
2622;SDS011;1321;48.690;9.022;2023-02-21T06:06:13;6.97;;;6.27;;
2622;SDS011;1321;48.690;9.022;2023-02-21T06:08:41;6.03;;;5.73;;
2622;SDS011;1321;48.690;9.022;2023-02-21T06:11:10;5.90;;;5.60;;
2622;SDS011;1321;48.690;9.022;2023-02-21T06:13:39;5.80;;;5.47;;
2622;SDS011;1321;48.690;9.022;2023-02-21T06:16:08;6.67;;;6.20;;
2622;SDS011;1321;48.690;9.022;2023-02-21T06:18:36;5.97;;;5.60;;
2622;SDS011;1321;48.690;9.022;2023-02-21T06:21:04;6.50;;;6.10;;
2622;SDS011;1321;48.690;9.022;2023-02-21T06:23:34;6.88;;;6.55;;
2622;SDS011;1321;48.690;9.022;2023-02-21T06:26:02;9.30;;;8.40;;
2622;SDS011;1321;48.690;9.022;2023-02-21T06:28:30;8.80;;;7.30;;
2622;SDS011;1321;48.690;9.022;2023-02-21T06:30:58;8.00;;;7.50;;
2622;SDS011;1321;48.690;9.022;2023-02-21T06:33:27;7.30;;;6.90;;
2622;SDS011;1321;48.690;9.022;2023-02-21T06:35:55;7.73;;;7.13;;
2622;SDS011;1321;48.690;9.022;2023-02-21T06:38:23;7.60;;;7.00;;
2622;SDS011;1321;48.690;9.022;2023-02-21T06:40:53;7.03;;;6.53;;
2622;SDS011;1321;48.690;9.022;2023-02-21T06:43:21;6.70;;;6.40;;
2622;SDS011;1321;48.690;9.022;2023-02-21T06:45:49;6.37;;;5.97;;
2622;SDS011;1321;48.690;9.022;2023-02-21T06:48:17;6.17;;;5.60;;
2622;SDS011;1321;48.690;9.022;2023-02-21T06:50:45;5.67;;;5.20;;
2622;SDS011;1321;48.690;9.022;2023-02-21T06:53:13;6.90;;;6.20;;
2622;SDS011;1321;48.690;9.022;2023-02-21T06:55:41;6.23;;;5.83;;
2622;SDS011;1321;48.690;9.022;2023-02-21T06:58:11;6.33;;;5.80;;
2622;SDS011;1321;48.690;9.022;2023-02-21T07:00:39;14.90;;;13.40;;
2622;SDS011;1321;48.690;9.022;2023-02-21T07:03:07;8.33;;;7.57;;
2622;SDS011;1321;48.690;9.022;2023-02-21T07:05:35;25.53;;;17.37;;
2622;SDS011;1321;48.690;9.022;2023-02-21T07:08:04;11.70;;;9.53;;
2622;SDS011;1321;48.690;9.022;2023-02-21T07:10:32;9.30;;;8.50;;
2622;SDS011;1321;48.690;9.022;2023-02-21T07:13:00;6.70;;;6.40;;
2622;SDS011;1321;48.690;9.022;2023-02-21T07:15:30;7.00;;;6.57;;
2622;SDS011;1321;48.690;9.022;2023-02-21T07:17:58;6.30;;;6.00;;
2622;SDS011;1321;48.690;9.022;2023-02-21T07:20:26;6.23;;;5.93;;
2622;SDS011;1321;48.690;9.022;2023-02-21T07:22:54;6.57;;;6.13;;
2622;SDS011;1321;48.690;9.022;2023-02-21T07:25:23;6.83;;;6.30;;
2622;SDS011;1321;48.690;9.022;2023-02-21T07:27:51;6.50;;;6.07;;
2622;SDS011;1321;48.690;9.022;2023-02-21T07:30:19;7.33;;;6.73;;
2622;SDS011;1321;48.690;9.022;2023-02-21T07:32:49;6.90;;;6.50;;
2622;SDS011;1321;48.690;9.022;2023-02-21T07:35:17;6.63;;;6.30;;
2622;SDS011;1321;48.690;9.022;2023-02-21T07:37:45;6.50;;;6.20;;
2622;SDS011;1321;48.690;9.022;2023-02-21T07:40:13;7.40;;;6.70;;
2622;SDS011;1321;48.690;9.022;2023-02-21T07:42:41;6.67;;;6.47;;
2622;SDS011;1321;48.690;9.022;2023-02-21T07:45:11;7.30;;;6.90;;
2622;SDS011;1321;48.690;9.022;2023-02-21T07:47:39;8.17;;;7.67;;
2622;SDS011;1321;48.690;9.022;2023-02-21T07:50:10;7.70;;;7.30;;
2622;SDS011;1321;48.690;9.022;2023-02-21T07:52:38;7.03;;;6.63;;
2622;SDS011;1321;48.690;9.022;2023-02-21T07:55:07;8.27;;;7.87;;
2622;SDS011;1321;48.690;9.022;2023-02-21T07:57:37;8.50;;;7.63;;
2622;SDS011;1321;48.690;9.022;2023-02-21T08:00:06;8.13;;;7.63;;
2622;SDS011;1321;48.690;9.022;2023-02-21T08:02:35;10.20;;;9.17;;
2622;SDS011;1321;48.690;9.022;2023-02-21T08:05:03;8.13;;;7.73;;
2622;SDS011;1321;48.690;9.022;2023-02-21T08:07:33;10.63;;;9.60;;
2622;SDS011;1321;48.690;9.022;2023-02-21T08:10:01;9.33;;;8.83;;
2622;SDS011;1321;48.690;9.022;2023-02-21T08:12:30;10.37;;;9.67;;
2622;SDS011;1321;48.690;9.022;2023-02-21T08:14:58;9.53;;;9.03;;
2622;SDS011;1321;48.690;9.022;2023-02-21T08:17:26;9.87;;;9.13;;
2622;SDS011;1321;48.690;9.022;2023-02-21T08:19:54;9.30;;;8.80;;
2622;SDS011;1321;48.690;9.022;2023-02-21T08:22:22;9.87;;;9.37;;
2622;SDS011;1321;48.690;9.022;2023-02-21T08:24:52;9.67;;;9.10;;
2622;SDS011;1321;48.690;9.022;2023-02-21T08:27:20;9.60;;;9.00;;
2622;SDS011;1321;48.690;9.022;2023-02-21T08:29:48;9.90;;;9.30;;
2622;SDS011;1321;48.690;9.022;2023-02-21T08:32:18;11.03;;;10.30;;
2622;SDS011;1321;48.690;9.022;2023-02-21T08:34:47;11.03;;;10.30;;
2622;SDS011;1321;48.690;9.022;2023-02-21T08:37:16;10.17;;;9.47;;
2622;SDS011;1321;48.690;9.022;2023-02-21T08:39:45;9.63;;;9.13;;
2622;SDS011;1321;48.690;9.022;2023-02-21T08:42:14;9.93;;;9.33;;
2622;SDS011;1321;48.690;9.022;2023-02-21T08:44:43;9.43;;;9.03;;
2622;SDS011;1321;48.690;9.022;2023-02-21T08:47:12;10.57;;;9.87;;
2622;SDS011;1321;48.690;9.022;2023-02-21T08:49:42;10.07;;;9.50;;
2622;SDS011;1321;48.690;9.022;2023-02-21T08:52:12;9.43;;;8.90;;
2622;SDS011;1321;48.690;9.022;2023-02-21T08:54:42;10.73;;;10.03;;
2622;SDS011;1321;48.690;9.022;2023-02-21T08:57:11;10.13;;;9.53;;
2622;SDS011;1321;48.690;9.022;2023-02-21T08:59:41;9.60;;;9.10;;
2622;SDS011;1321;48.690;9.022;2023-02-21T09:02:13;9.40;;;8.80;;
2622;SDS011;1321;48.690;9.022;2023-02-21T09:04:42;9.77;;;9.33;;
2622;SDS011;1321;48.690;9.022;2023-02-21T09:07:11;10.97;;;10.37;;
2622;SDS011;1321;48.690;9.022;2023-02-21T09:09:39;10.20;;;9.60;;
2622;SDS011;1321;48.690;9.022;2023-02-21T09:12:07;10.60;;;9.80;;
2622;SDS011;1321;48.690;9.022;2023-02-21T09:14:36;9.40;;;8.97;;
2622;SDS011;1321;48.690;9.022;2023-02-21T09:17:08;8.90;;;8.20;;
2622;SDS011;1321;48.690;9.022;2023-02-21T09:19:39;9.43;;;8.87;;
2622;SDS011;1321;48.690;9.022;2023-02-21T09:22:07;9.43;;;8.97;;
2622;SDS011;1321;48.690;9.022;2023-02-21T09:24:36;8.67;;;8.30;;
2622;SDS011;1321;48.690;9.022;2023-02-21T09:27:04;7.60;;;7.10;;
2622;SDS011;1321;48.690;9.022;2023-02-21T09:29:34;7.53;;;7.23;;
2622;SDS011;1321;48.690;9.022;2023-02-21T09:32:13;8.13;;;7.73;;
2622;SDS011;1321;48.690;9.022;2023-02-21T09:34:41;8.20;;;7.70;;
2622;SDS011;1321;48.690;9.022;2023-02-21T09:37:09;7.43;;;7.13;;
2622;SDS011;1321;48.690;9.022;2023-02-21T09:39:38;7.87;;;7.27;;
2622;SDS011;1321;48.690;9.022;2023-02-21T09:42:06;8.40;;;7.83;;
2622;SDS011;1321;48.690;9.022;2023-02-21T09:44:37;7.73;;;7.43;;
2622;SDS011;1321;48.690;9.022;2023-02-21T09:47:05;7.37;;;6.97;;
2622;SDS011;1321;48.690;9.022;2023-02-21T09:49:36;8.27;;;7.77;;
2622;SDS011;1321;48.690;9.022;2023-02-21T09:52:07;7.73;;;7.30;;
2622;SDS011;1321;48.690;9.022;2023-02-21T09:54:45;8.57;;;8.07;;
2622;SDS011;1321;48.690;9.022;2023-02-21T09:57:17;9.33;;;8.50;;
2622;SDS011;1321;48.690;9.022;2023-02-21T09:59:46;9.00;;;8.20;;
2622;SDS011;1321;48.690;9.022;2023-02-21T10:02:19;7.93;;;7.37;;
2622;SDS011;1321;48.690;9.022;2023-02-21T10:04:58;6.90;;;6.70;;
2622;SDS011;1321;48.690;9.022;2023-02-21T10:07:35;8.00;;;7.70;;
2622;SDS011;1321;48.690;9.022;2023-02-21T10:10:12;6.93;;;6.40;;
2622;SDS011;1321;48.690;9.022;2023-02-21T10:12:45;6.50;;;6.30;;
2622;SDS011;1321;48.690;9.022;2023-02-21T10:15:34;7.23;;;6.80;;
2622;SDS011;1321;48.690;9.022;2023-02-21T10:18:08;5.63;;;5.33;;
2622;SDS011;1321;48.690;9.022;2023-02-21T10:20:48;7.33;;;6.70;;
2622;SDS011;1321;48.690;9.022;2023-02-21T10:23:21;5.90;;;5.60;;
2622;SDS011;1321;48.690;9.022;2023-02-21T10:25:54;5.60;;;5.10;;
2622;SDS011;1321;48.690;9.022;2023-02-21T10:28:25;6.27;;;6.07;;
2622;SDS011;1321;48.690;9.022;2023-02-21T10:30:54;5.23;;;5.13;;
2622;SDS011;1321;48.690;9.022;2023-02-21T10:33:25;6.00;;;5.80;;
2622;SDS011;1321;48.690;9.022;2023-02-21T10:35:55;7.73;;;7.43;;
2622;SDS011;1321;48.690;9.022;2023-02-21T10:38:24;7.07;;;6.77;;
2622;SDS011;1321;48.690;9.022;2023-02-21T10:40:53;7.07;;;6.67;;
2622;SDS011;1321;48.690;9.022;2023-02-21T10:43:25;6.50;;;6.30;;
2622;SDS011;1321;48.690;9.022;2023-02-21T10:45:59;6.70;;;6.40;;
2622;SDS011;1321;48.690;9.022;2023-02-21T10:48:31;5.40;;;5.20;;
2622;SDS011;1321;48.690;9.022;2023-02-21T10:51:08;6.00;;;5.77;;
2622;SDS011;1321;48.690;9.022;2023-02-21T10:53:38;4.53;;;4.33;;
2622;SDS011;1321;48.690;9.022;2023-02-21T10:58:56;4.27;;;4.07;;
2622;SDS011;1321;48.690;9.022;2023-02-21T11:01:32;4.70;;;4.50;;
2622;SDS011;1321;48.690;9.022;2023-02-21T11:04:05;4.10;;;3.90;;
2622;SDS011;1321;48.690;9.022;2023-02-21T11:06:50;3.90;;;3.70;;
2622;SDS011;1321;48.690;9.022;2023-02-21T11:09:29;3.63;;;3.33;;
2622;SDS011;1321;48.690;9.022;2023-02-21T11:12:01;2.30;;;2.20;;
2622;SDS011;1321;48.690;9.022;2023-02-21T11:14:31;2.73;;;2.63;;
2622;SDS011;1321;48.690;9.022;2023-02-21T11:17:11;2.93;;;2.70;;
2622;SDS011;1321;48.690;9.022;2023-02-21T11:19:42;2.40;;;2.40;;
2622;SDS011;1321;48.690;9.022;2023-02-21T11:22:17;2.50;;;2.40;;
2622;SDS011;1321;48.690;9.022;2023-02-21T11:24:53;2.73;;;2.63;;
2622;SDS011;1321;48.690;9.022;2023-02-21T11:27:26;2.60;;;2.50;;
2622;SDS011;1321;48.690;9.022;2023-02-21T11:29:56;2.03;;;1.97;;
2622;SDS011;1321;48.690;9.022;2023-02-21T11:32:27;1.90;;;1.80;;
2622;SDS011;1321;48.690;9.022;2023-02-21T11:35:00;1.60;;;1.60;;
2622;SDS011;1321;48.690;9.022;2023-02-21T11:37:31;2.00;;;1.90;;
2622;SDS011;1321;48.690;9.022;2023-02-21T11:40:00;2.30;;;2.03;;
2622;SDS011;1321;48.690;9.022;2023-02-21T11:42:31;1.80;;;1.70;;
2622;SDS011;1321;48.690;9.022;2023-02-21T11:45:11;1.80;;;1.70;;
2622;SDS011;1321;48.690;9.022;2023-02-21T11:47:45;1.93;;;1.57;;
2622;SDS011;1321;48.690;9.022;2023-02-21T11:50:21;1.67;;;1.57;;
2622;SDS011;1321;48.690;9.022;2023-02-21T11:52:55;1.90;;;1.80;;
2622;SDS011;1321;48.690;9.022;2023-02-21T11:55:28;1.63;;;1.53;;
2622;SDS011;1321;48.690;9.022;2023-02-21T11:58:00;1.60;;;1.60;;
2622;SDS011;1321;48.690;9.022;2023-02-21T12:00:39;1.77;;;1.67;;
2622;SDS011;1321;48.690;9.022;2023-02-21T12:06:30;1.70;;;1.60;;
2622;SDS011;1321;48.690;9.022;2023-02-21T12:09:06;1.40;;;1.40;;
2622;SDS011;1321;48.690;9.022;2023-02-21T12:11:41;1.53;;;1.43;;
2622;SDS011;1321;48.690;9.022;2023-02-21T12:14:18;1.57;;;1.57;;
2622;SDS011;1321;48.690;9.022;2023-02-21T12:17:01;1.60;;;1.50;;
2622;SDS011;1321;48.690;9.022;2023-02-21T12:19:46;1.60;;;1.50;;
2622;SDS011;1321;48.690;9.022;2023-02-21T12:22:39;1.50;;;1.40;;
2622;SDS011;1321;48.690;9.022;2023-02-21T12:25:17;1.60;;;1.50;;
2622;SDS011;1321;48.690;9.022;2023-02-21T12:27:51;1.50;;;1.50;;
2622;SDS011;1321;48.690;9.022;2023-02-21T12:30:40;1.60;;;1.50;;
2622;SDS011;1321;48.690;9.022;2023-02-21T12:33:33;1.60;;;1.50;;
2622;SDS011;1321;48.690;9.022;2023-02-21T12:36:30;1.70;;;1.60;;
2622;SDS011;1321;48.690;9.022;2023-02-21T12:39:18;1.57;;;1.47;;
2622;SDS011;1321;48.690;9.022;2023-02-21T12:42:04;1.40;;;1.40;;
2622;SDS011;1321;48.690;9.022;2023-02-21T12:44:45;3.70;;;1.30;;
2622;SDS011;1321;48.690;9.022;2023-02-21T12:47:22;1.30;;;1.30;;
2622;SDS011;1321;48.690;9.022;2023-02-21T12:49:57;1.20;;;1.20;;
2622;SDS011;1321;48.690;9.022;2023-02-21T12:52:31;1.30;;;1.30;;
2622;SDS011;1321;48.690;9.022;2023-02-21T12:55:03;1.50;;;1.40;;
2622;SDS011;1321;48.690;9.022;2023-02-21T12:57:55;1.73;;;1.63;;
2622;SDS011;1321;48.690;9.022;2023-02-21T13:00:26;1.50;;;1.40;;
2622;SDS011;1321;48.690;9.022;2023-02-21T13:03:02;1.60;;;1.50;;
2622;SDS011;1321;48.690;9.022;2023-02-21T13:05:44;2.33;;;1.73;;
2622;SDS011;1321;48.690;9.022;2023-02-21T13:08:15;1.73;;;1.63;;
2622;SDS011;1321;48.690;9.022;2023-02-21T13:10:49;1.50;;;1.50;;
2622;SDS011;1321;48.690;9.022;2023-02-21T13:13:25;1.57;;;1.47;;
2622;SDS011;1321;48.690;9.022;2023-02-21T13:15:57;1.50;;;1.50;;
2622;SDS011;1321;48.690;9.022;2023-02-21T13:18:30;1.93;;;1.70;;
2622;SDS011;1321;48.690;9.022;2023-02-21T13:21:03;1.80;;;1.70;;
2622;SDS011;1321;48.690;9.022;2023-02-21T13:23:49;1.50;;;1.50;;
2622;SDS011;1321;48.690;9.022;2023-02-21T13:26:40;1.60;;;1.60;;
2622;SDS011;1321;48.690;9.022;2023-02-21T13:29:19;1.53;;;1.50;;
2622;SDS011;1321;48.690;9.022;2023-02-21T13:31:54;1.90;;;1.60;;
2622;SDS011;1321;48.690;9.022;2023-02-21T13:34:27;1.50;;;1.50;;
2622;SDS011;1321;48.690;9.022;2023-02-21T13:37:01;1.70;;;1.70;;
2622;SDS011;1321;48.690;9.022;2023-02-21T13:39:32;1.87;;;1.87;;
2622;SDS011;1321;48.690;9.022;2023-02-21T13:42:04;1.80;;;1.70;;
2622;SDS011;1321;48.690;9.022;2023-02-21T13:44:36;1.50;;;1.40;;
2622;SDS011;1321;48.690;9.022;2023-02-21T13:47:08;1.80;;;1.70;;
2622;SDS011;1321;48.690;9.022;2023-02-21T13:49:49;1.80;;;1.70;;
2622;SDS011;1321;48.690;9.022;2023-02-21T13:52:35;2.00;;;1.90;;
2622;SDS011;1321;48.690;9.022;2023-02-21T13:55:27;1.40;;;1.40;;
2622;SDS011;1321;48.690;9.022;2023-02-21T14:01:14;1.50;;;1.50;;
2622;SDS011;1321;48.690;9.022;2023-02-21T14:03:58;1.70;;;1.60;;
2622;SDS011;1321;48.690;9.022;2023-02-21T14:06:33;1.50;;;1.43;;
2622;SDS011;1321;48.690;9.022;2023-02-21T14:09:09;1.83;;;1.70;;
2622;SDS011;1321;48.690;9.022;2023-02-21T14:11:43;1.53;;;1.53;;
2622;SDS011;1321;48.690;9.022;2023-02-21T14:14:18;1.67;;;1.60;;
2622;SDS011;1321;48.690;9.022;2023-02-21T14:16:57;2.07;;;1.63;;
2622;SDS011;1321;48.690;9.022;2023-02-21T14:19:31;1.63;;;1.60;;
2622;SDS011;1321;48.690;9.022;2023-02-21T14:22:03;2.00;;;1.90;;
2622;SDS011;1321;48.690;9.022;2023-02-21T14:24:38;1.90;;;1.80;;
2622;SDS011;1321;48.690;9.022;2023-02-21T14:33:07;1.60;;;1.60;;
2622;SDS011;1321;48.690;9.022;2023-02-21T14:35:45;1.60;;;1.60;;
2622;SDS011;1321;48.690;9.022;2023-02-21T14:38:21;1.50;;;1.40;;
2622;SDS011;1321;48.690;9.022;2023-02-21T14:40:57;1.60;;;1.50;;
2622;SDS011;1321;48.690;9.022;2023-02-21T14:43:39;2.10;;;1.60;;
2622;SDS011;1321;48.690;9.022;2023-02-21T14:49:45;1.80;;;1.70;;
2622;SDS011;1321;48.690;9.022;2023-02-21T14:52:25;1.77;;;1.60;;
2622;SDS011;1321;48.690;9.022;2023-02-21T14:55:25;1.50;;;1.40;;
2622;SDS011;1321;48.690;9.022;2023-02-21T15:01:28;1.50;;;1.40;;
2622;SDS011;1321;48.690;9.022;2023-02-21T15:04:08;1.33;;;1.33;;
2622;SDS011;1321;48.690;9.022;2023-02-21T15:06:54;1.40;;;1.40;;
2622;SDS011;1321;48.690;9.022;2023-02-21T15:09:29;1.60;;;1.50;;
2622;SDS011;1321;48.690;9.022;2023-02-21T15:11:57;1.40;;;1.40;;
2622;SDS011;1321;48.690;9.022;2023-02-21T15:14:28;1.47;;;1.47;;
2622;SDS011;1321;48.690;9.022;2023-02-21T15:17:09;1.43;;;1.33;;
2622;SDS011;1321;48.690;9.022;2023-02-21T15:19:39;1.47;;;1.47;;
2622;SDS011;1321;48.690;9.022;2023-02-21T15:22:14;1.50;;;1.50;;
2622;SDS011;1321;48.690;9.022;2023-02-21T15:27:51;1.50;;;1.40;;
2622;SDS011;1321;48.690;9.022;2023-02-21T15:30:37;1.60;;;1.50;;
2622;SDS011;1321;48.690;9.022;2023-02-21T15:33:10;2.03;;;1.90;;
2622;SDS011;1321;48.690;9.022;2023-02-21T15:35:43;1.80;;;1.70;;
2622;SDS011;1321;48.690;9.022;2023-02-21T15:38:20;1.57;;;1.57;;
2622;SDS011;1321;48.690;9.022;2023-02-21T15:40:55;1.90;;;1.80;;
2622;SDS011;1321;48.690;9.022;2023-02-21T15:43:30;1.73;;;1.63;;
2622;SDS011;1321;48.690;9.022;2023-02-21T15:46:05;1.60;;;1.60;;
2622;SDS011;1321;48.690;9.022;2023-02-21T15:48:36;1.90;;;1.80;;
2622;SDS011;1321;48.690;9.022;2023-02-21T15:51:05;3.03;;;1.70;;
2622;SDS011;1321;48.690;9.022;2023-02-21T15:53:37;1.80;;;1.70;;
2622;SDS011;1321;48.690;9.022;2023-02-21T15:56:19;2.17;;;2.00;;
2622;SDS011;1321;48.690;9.022;2023-02-21T15:59:10;1.93;;;1.83;;
2622;SDS011;1321;48.690;9.022;2023-02-21T16:01:39;1.80;;;1.70;;
2622;SDS011;1321;48.690;9.022;2023-02-21T16:04:15;1.70;;;1.60;;
2622;SDS011;1321;48.690;9.022;2023-02-21T16:06:55;1.63;;;1.63;;
2622;SDS011;1321;48.690;9.022;2023-02-21T16:09:26;1.80;;;1.70;;
2622;SDS011;1321;48.690;9.022;2023-02-21T16:11:56;1.93;;;1.80;;
2622;SDS011;1321;48.690;9.022;2023-02-21T16:14:29;2.50;;;2.10;;
2622;SDS011;1321;48.690;9.022;2023-02-21T16:17:05;2.90;;;2.60;;
2622;SDS011;1321;48.690;9.022;2023-02-21T16:19:46;4.67;;;2.97;;
2622;SDS011;1321;48.690;9.022;2023-02-21T16:22:26;4.77;;;3.77;;
2622;SDS011;1321;48.690;9.022;2023-02-21T16:25:14;3.83;;;3.17;;
2622;SDS011;1321;48.690;9.022;2023-02-21T16:27:48;3.13;;;2.80;;
2622;SDS011;1321;48.690;9.022;2023-02-21T16:30:18;3.80;;;3.50;;